Time;durP1;ratioP1;P1;durP2;ratioP2;P2;SDS_P1;SDS_P2;PMS_P1;PMS_P2;Temp;Humidity;BMP_temperature;BMP_pressure;BME280_temperature;BME280_humidity;BME280_pressure;Samples;Min_cycle;Max_cycle;Signal;HPM_P1;HPM_P2
2022/05/26 00:00:27;;;;;;;1.10;0.60;;;;;;;26.35;34.43;100841.69;4912880;29;20048;-81
2022/05/26 00:03:02;;;;;;;1.17;0.50;;;;;;;26.33;34.63;100838.22;4894861;29;20473;-84
2022/05/26 00:05:31;;;;;;;0.85;0.55;;;;;;;26.48;34.45;100829.72;4894866;29;20071;-82
2022/05/26 00:07:59;;;;;;;1.90;0.60;;;;;;;26.50;33.89;100841.16;4895696;29;20113;-83
2022/05/26 00:10:30;;;;;;;2.17;0.57;;;;;;;26.44;33.79;100835.19;4895502;29;20055;-82
2022/05/26 00:12:58;;;;;;;1.02;0.50;;;;;;;26.37;34.96;100839.84;4899438;29;20067;-83
2022/05/26 00:15:30;;;;;;;0.60;0.40;;;;;;;26.29;34.62;100831.28;4913831;29;20056;-81
2022/05/26 00:17:58;;;;;;;1.60;0.40;;;;;;;26.20;35.74;100834.25;4914011;29;20052;-82
2022/05/26 00:20:27;;;;;;;1.45;0.52;;;;;;;26.17;34.95;100827.28;4913936;29;20044;-83
2022/05/26 00:22:56;;;;;;;1.15;0.50;;;;;;;26.15;35.28;100821.16;4897962;29;20071;-83
2022/05/26 00:25:24;;;;;;;3.03;0.50;;;;;;;26.01;35.25;100808.34;4913506;29;20086;-84
2022/05/26 00:27:55;;;;;;;0.60;0.50;;;;;;;25.97;35.44;100816.47;4914782;28;20108;-83
2022/05/26 00:30:24;;;;;;;1.45;0.47;;;;;;;25.94;35.49;100804.19;4913158;29;20075;-83
2022/05/26 00:32:53;;;;;;;1.05;0.45;;;;;;;25.94;35.76;100809.50;4912294;29;20055;-83
2022/05/26 00:35:21;;;;;;;0.88;0.60;;;;;;;25.92;35.54;100812.19;4913335;29;20055;-83
2022/05/26 00:37:50;;;;;;;2.58;0.57;;;;;;;25.88;36.13;100814.97;4914500;29;20052;-83
2022/05/26 00:40:19;;;;;;;1.15;0.70;;;;;;;25.93;36.71;100813.06;4914230;29;20410;-83
2022/05/26 00:42:51;;;;;;;0.57;0.50;;;;;;;25.98;36.25;100811.13;4913216;29;20048;-83
2022/05/26 00:45:21;;;;;;;0.95;0.60;;;;;;;26.02;35.46;100806.56;4914181;29;20076;-81
2022/05/26 00:47:51;;;;;;;0.60;0.50;;;;;;;26.06;34.90;100802.91;4913793;29;20108;-82
2022/05/26 00:50:23;;;;;;;0.70;0.47;;;;;;;25.96;35.05;100790.88;4913933;29;20052;-84
2022/05/26 00:52:54;;;;;;;3.28;1.17;;;;;;;25.99;35.70;100788.13;4913639;29;20056;-84
2022/05/26 00:55:27;;;;;;;0.68;0.47;;;;;;;25.96;35.95;100786.44;4915414;29;20498;-86
2022/05/26 00:58:01;;;;;;;0.80;0.60;;;;;;;25.99;34.95;100785.47;4914631;29;20048;-81
2022/05/26 01:00:35;;;;;;;1.42;0.40;;;;;;;25.89;34.56;100776.97;4913945;29;20091;-86
2022/05/26 01:03:09;;;;;;;0.60;0.40;;;;;;;25.76;34.86;100772.97;4876197;29;20093;-84
2022/05/26 01:05:41;;;;;;;1.15;0.75;;;;;;;25.71;35.94;100766.03;4875744;29;20571;-85
2022/05/26 01:08:16;;;;;;;4.47;1.90;;;;;;;25.74;37.32;100764.19;4876306;29;20076;-83
2022/05/26 01:10:45;;;;;;;8.55;2.83;;;;;;;25.82;38.82;100767.47;4877673;29;20049;-83
2022/05/26 01:13:16;;;;;;;3.20;1.33;;;;;;;25.90;37.48;100758.34;4892795;29;20099;-83
2022/05/26 01:15:53;;;;;;;8.35;1.42;;;;;;;25.99;36.98;100754.53;4920797;29;20107;-83
2022/05/26 01:18:31;;;;;;;1.58;1.00;;;;;;;26.03;36.50;100750.00;4917740;29;20064;-86
2022/05/26 01:21:09;;;;;;;1.15;0.70;;;;;;;26.01;36.49;100757.97;4915245;29;20056;-81
2022/05/26 01:24:02;;;;;;;1.30;0.50;;;;;;;25.98;35.43;100758.09;4897948;29;20109;-80
2022/05/26 01:26:54;;;;;;;3.03;0.70;;;;;;;25.97;36.07;100755.50;4899978;28;20115;-83
2022/05/26 01:29:51;;;;;;;1.75;0.80;;;;;;;25.98;35.27;100742.19;4898417;29;20135;-82
2022/05/26 01:32:28;;;;;;;0.98;0.70;;;;;;;25.98;35.77;100731.59;4897990;29;20052;-83
2022/05/26 01:35:04;;;;;;;4.18;0.60;;;;;;;25.95;36.27;100723.72;4897920;29;20053;-84
2022/05/26 01:37:41;;;;;;;2.47;0.65;;;;;;;25.88;37.15;100730.16;4898431;29;20139;-82
2022/05/26 01:40:18;;;;;;;0.75;0.55;;;;;;;25.81;36.98;100731.25;4897868;29;20316;-83
2022/05/26 01:42:54;;;;;;;0.70;0.50;;;;;;;25.80;36.88;100733.06;4897405;29;20496;-82
2022/05/26 01:45:33;;;;;;;1.65;0.70;;;;;;;25.86;35.99;100727.56;4897690;29;20053;-82
2022/05/26 01:48:14;;;;;;;1.45;0.65;;;;;;;25.90;36.19;100728.31;4898279;29;20049;-83
2022/05/26 01:50:46;;;;;;;1.48;0.60;;;;;;;25.82;36.52;100719.75;4898080;29;20123;-84
2022/05/26 01:53:30;;;;;;;0.80;0.60;;;;;;;25.76;36.67;100727.91;4897400;29;20139;-83
2022/05/26 01:56:10;;;;;;;1.83;0.98;;;;;;;25.71;37.12;100723.63;4897366;29;20108;-79
2022/05/26 01:58:43;;;;;;;3.65;0.77;;;;;;;25.69;36.39;100714.84;4898041;29;20056;-80
2022/05/26 02:01:15;;;;;;;2.00;0.70;;;;;;;25.69;35.46;100719.28;4901979;29;20087;-81
2022/05/26 02:03:49;;;;;;;1.30;0.50;;;;;;;25.71;36.32;100725.41;4916114;29;20059;-80
2022/05/26 02:06:22;;;;;;;1.77;0.50;;;;;;;25.69;35.43;100725.47;4916878;29;20526;-82
2022/05/26 02:08:56;;;;;;;1.17;0.57;;;;;;;25.65;36.62;100721.16;4921434;29;20048;-80
2022/05/26 02:11:26;;;;;;;0.90;0.70;;;;;;;25.61;36.44;100726.63;4917025;29;20060;-82
2022/05/26 02:13:58;;;;;;;0.82;0.50;;;;;;;25.56;37.01;100718.81;4904272;29;20044;-81
2022/05/26 02:16:35;;;;;;;1.50;0.75;;;;;;;25.50;36.04;100713.75;4897985;29;20102;-80
2022/05/26 02:19:11;;;;;;;0.98;0.50;;;;;;;25.46;36.79;100717.41;4897475;29;20075;-83
2022/05/26 02:21:45;;;;;;;2.20;0.93;;;;;;;25.44;38.71;100711.31;4896014;29;20060;-85
2022/05/26 02:24:19;;;;;;;0.63;0.63;;;;;;;25.39;36.38;100707.94;4904994;29;20048;-84
2022/05/26 02:26:48;;;;;;;2.55;1.05;;;;;;;25.35;38.90;100709.81;4917597;28;20103;-86
2022/05/26 02:32:05;;;;;;;2.70;0.52;;;;;;;25.21;40.44;100696.16;4915891;29;20138;-86
2022/05/26 02:34:36;;;;;;;2.95;0.65;;;;;;;25.11;39.41;100706.16;4915696;29;20060;-85
2022/05/26 02:37:06;;;;;;;0.77;0.65;;;;;;;25.02;38.31;100702.00;4916683;29;20079;-86
2022/05/26 02:39:35;;;;;;;1.63;0.90;;;;;;;24.92;38.99;100703.19;4921505;29;20486;-93
2022/05/26 02:42:05;;;;;;;2.15;0.80;;;;;;;24.81;40.04;100702.69;4917899;29;20076;-89
2022/05/26 02:44:35;;;;;;;0.82;0.70;;;;;;;24.72;40.01;100695.03;4917244;29;20139;-90
2022/05/26 02:47:16;;;;;;;0.60;0.45;;;;;;;24.65;39.62;100691.69;4919158;29;20116;-86
2022/05/26 02:50:05;;;;;;;0.70;0.57;;;;;;;24.59;39.89;100703.31;4919688;29;20048;-94
2022/05/26 02:52:41;;;;;;;0.95;0.60;;;;;;;24.50;39.69;100703.56;4918462;29;21056;-85
2022/05/26 02:55:18;;;;;;;1.63;0.60;;;;;;;24.41;40.61;100702.03;4917736;29;20134;-94
2022/05/26 02:57:59;;;;;;;1.27;0.52;;;;;;;24.33;40.43;100693.47;4919623;29;20048;-87
2022/05/26 03:00:33;;;;;;;1.00;0.65;;;;;;;24.26;40.07;100705.13;4917665;29;20071;-88
2022/05/26 03:03:07;;;;;;;2.25;0.50;;;;;;;24.17;40.03;100697.44;4897495;29;20488;-86
2022/05/26 03:05:48;;;;;;;2.05;0.50;;;;;;;24.12;40.52;100700.22;4899245;29;20312;-84
2022/05/26 03:08:20;;;;;;;1.77;0.52;;;;;;;24.07;40.17;100696.81;4897105;29;20114;-84
2022/05/26 03:10:51;;;;;;;0.75;0.50;;;;;;;24.02;40.46;100690.78;4896598;29;20104;-84
2022/05/26 03:13:19;;;;;;;0.70;0.50;;;;;;;23.95;40.23;100690.09;4903804;29;20104;-88
2022/05/26 03:15:48;;;;;;;1.13;0.77;;;;;;;23.87;40.71;100697.38;4916205;29;20040;-85
2022/05/26 03:18:17;;;;;;;1.35;0.70;;;;;;;23.80;40.61;100698.41;4915437;29;20060;-85
2022/05/26 03:20:47;;;;;;;2.70;0.75;;;;;;;23.73;40.89;100694.16;4914395;29;20052;-85
2022/05/26 03:23:16;;;;;;;3.63;0.77;;;;;;;23.63;40.95;100686.47;4896524;29;20108;-86
2022/05/26 03:25:47;;;;;;;1.17;0.60;;;;;;;23.54;41.34;100689.34;4914843;29;20099;-87
2022/05/26 03:28:16;;;;;;;2.20;0.70;;;;;;;23.42;41.71;100695.81;4918268;28;20052;-83
2022/05/26 03:30:44;;;;;;;1.67;0.60;;;;;;;23.31;41.97;100702.25;4918260;29;20499;-83
2022/05/26 03:33:13;;;;;;;2.90;0.75;;;;;;;23.19;43.63;100699.00;4915810;29;20052;-83
2022/05/26 03:41:13;;;;;;;3.25;1.00;;;;;;;22.90;43.37;100701.41;4914532;29;20074;-84
2022/05/26 03:43:44;;;;;;;3.55;1.02;;;;;;;22.80;43.44;100711.31;4914239;29;20049;-85
2022/05/26 03:46:13;;;;;;;2.92;1.10;;;;;;;22.69;44.13;100711.53;4914667;29;20076;-85
2022/05/26 03:48:41;;;;;;;1.92;1.10;;;;;;;22.58;44.14;100711.75;4914729;29;20056;-87
2022/05/26 03:51:10;;;;;;;1.40;1.00;;;;;;;22.49;44.86;100708.44;4916147;29;20048;-87
2022/05/26 03:53:41;;;;;;;1.63;0.98;;;;;;;22.41;45.60;100707.75;4915658;29;20510;-87
2022/05/26 03:56:09;;;;;;;2.63;1.10;;;;;;;22.30;46.37;100700.91;4914350;29;20052;-86
2022/05/26 03:58:37;;;;;;;2.22;1.30;;;;;;;22.22;46.49;100699.31;4914795;29;20459;-86
2022/05/26 04:01:08;;;;;;;2.53;1.13;;;;;;;22.10;47.45;100705.66;4910389;29;20104;-87
2022/05/26 04:03:36;;;;;;;3.53;1.15;;;;;;;22.02;47.53;100711.09;4896007;29;20060;-87
2022/05/26 04:06:05;;;;;;;2.88;1.30;;;;;;;21.94;48.06;100713.88;4897120;29;20120;-88
2022/05/26 04:08:33;;;;;;;3.20;1.90;;;;;;;21.85;48.68;100711.41;4897131;29;20140;-88
2022/05/26 04:11:03;;;;;;;2.35;1.42;;;;;;;21.78;48.09;100714.16;4896152;29;20090;-89
2022/05/26 04:13:32;;;;;;;1.48;1.25;;;;;;;21.69;47.76;100716.06;4907288;29;20048;-87
2022/05/26 04:16:00;;;;;;;2.17;1.38;;;;;;;21.61;48.19;100714.44;4918294;29;20056;-88
2022/05/26 04:18:29;;;;;;;2.42;1.10;;;;;;;21.52;49.17;100716.31;4916923;29;20498;-87
2022/05/26 04:21:06;;;;;;;3.42;1.13;;;;;;;21.45;49.20;100719.97;4919746;29;20075;-90
2022/05/26 04:23:35;;;;;;;2.65;1.30;;;;;;;21.35;49.11;100718.34;4913417;29;20040;-91
2022/05/26 04:26:07;;;;;;;2.17;1.40;;;;;;;21.25;49.20;100727.25;4913138;29;20060;-93
2022/05/26 04:28:36;;;;;;;4.68;1.48;;;;;;;21.15;49.72;100733.56;4904342;28;20491;-88
2022/05/26 04:31:05;;;;;;;2.97;1.38;;;;;;;21.02;50.51;100725.81;4898591;29;20112;-89
2022/05/26 04:33:35;;;;;;;2.97;1.33;;;;;;;20.94;51.09;100725.09;4898746;29;20053;-89
2022/05/26 04:36:05;;;;;;;4.68;1.48;;;;;;;20.87;51.74;100721.66;4898763;29;20569;-88
2022/05/26 04:38:34;;;;;;;4.70;1.27;;;;;;;20.82;51.13;100725.22;4899136;29;20064;-89
2022/05/26 04:41:05;;;;;;;3.90;1.45;;;;;;;20.77;52.04;100719.16;4899502;29;20415;-91
2022/05/26 04:43:34;;;;;;;3.55;1.60;;;;;;;20.71;51.69;100720.13;4919410;29;20059;-90
2022/05/26 04:46:03;;;;;;;3.35;1.77;;;;;;;20.66;51.99;100730.69;4907196;29;20053;-89
2022/05/26 04:48:32;;;;;;;3.33;1.42;;;;;;;20.61;53.06;100719.34;4913704;29;20028;-89
2022/05/26 04:51:01;;;;;;;3.85;1.50;;;;;;;20.54;52.87;100722.91;4917973;29;20108;-88
2022/05/26 04:53:34;;;;;;;3.53;1.45;;;;;;;20.48;53.77;100720.38;4917860;29;20028;-90
2022/05/26 04:56:04;;;;;;;4.30;1.35;;;;;;;20.38;53.90;100727.47;4921077;29;20053;-88
2022/05/26 04:58:36;;;;;;;5.35;1.70;;;;;;;20.32;53.26;100730.19;4920147;29;20040;-92
2022/05/26 05:01:12;;;;;;;;;;;;;;;20.26;53.41;100728.50;4920753;29;20032;-91
2022/05/26 05:03:41;;;;;;;2.85;1.73;;;;;;;20.19;53.99;100723.34;4908603;29;19934;-90
2022/05/26 05:06:09;;;;;;;2.47;1.50;;;;;;;20.13;53.35;100726.00;4902470;29;20080;-91
2022/05/26 05:08:38;;;;;;;4.93;1.45;;;;;;;20.05;55.08;100724.34;4920703;29;20053;-92
2022/05/26 05:11:08;;;;;;;2.05;1.30;;;;;;;19.99;54.73;100729.63;4906954;29;20060;-85
2022/05/26 05:13:36;;;;;;;3.35;1.50;;;;;;;19.96;54.38;100728.81;4904670;29;20139;-86
2022/05/26 05:16:08;;;;;;;4.55;1.50;;;;;;;19.90;54.24;100734.13;4917793;29;20056;-86
2022/05/26 05:18:36;;;;;;;2.00;1.33;;;;;;;19.84;55.20;100745.56;4914604;29;20052;-88
2022/05/26 05:21:06;;;;;;;4.55;1.55;;;;;;;19.72;54.92;100740.41;4912661;29;20475;-87
2022/05/26 05:23:39;;;;;;;2.45;1.30;;;;;;;19.62;54.97;100739.56;4898861;29;20056;-85
2022/05/26 05:26:14;;;;;;;2.03;1.25;;;;;;;19.58;55.41;100741.34;4913205;29;20048;-85
2022/05/26 05:28:47;;;;;;;2.72;1.35;;;;;;;19.56;55.02;100740.50;4915809;28;20059;-85
2022/05/26 05:31:18;;;;;;;;;;;;;;;19.52;55.72;100738.78;4915279;29;20104;-84
2022/05/26 05:33:50;;;;;;;7.25;1.80;;;;;;;19.47;59.70;100735.31;4912935;29;19935;-86
2022/05/26 05:36:22;;;;;;;6.65;1.58;;;;;;;19.40;58.31;100747.63;4913864;29;20139;-85
2022/05/26 05:38:50;;;;;;;2.00;1.30;;;;;;;19.36;57.86;100747.66;4916944;29;20083;-86
2022/05/26 05:41:21;;;;;;;2.13;1.15;;;;;;;19.32;58.28;100740.69;4913286;29;20086;-85
2022/05/26 05:43:50;;;;;;;1.80;1.20;;;;;;;19.29;57.17;100741.56;4914317;29;20082;-86
2022/05/26 05:46:20;;;;;;;2.40;1.20;;;;;;;19.25;57.56;100739.84;4913984;29;20092;-86
2022/05/26 05:48:49;;;;;;;3.05;1.23;;;;;;;19.21;57.71;100740.72;4913968;29;20044;-86
2022/05/26 05:51:18;;;;;;;3.55;1.50;;;;;;;19.15;57.38;100746.00;4913839;29;20479;-85
2022/05/26 05:53:47;;;;;;;4.78;1.38;;;;;;;19.12;58.23;100748.66;4913084;29;20507;-85
2022/05/26 05:56:15;;;;;;;1.92;1.65;;;;;;;19.10;58.18;100750.41;4913723;29;20048;-87
2022/05/26 05:58:45;;;;;;;2.78;1.40;;;;;;;19.08;58.44;100746.94;4916825;29;20490;-86
2022/05/26 06:01:14;;;;;;;2.35;1.23;;;;;;;19.05;58.86;100745.19;4911958;29;20538;-85
2022/05/26 06:03:42;;;;;;;4.20;1.40;;;;;;;19.04;58.94;100739.09;4897454;29;20045;-87
2022/05/26 06:06:11;;;;;;;2.28;1.20;;;;;;;19.04;59.56;100743.47;4898096;29;20088;-86
2022/05/26 06:08:39;;;;;;;2.20;1.20;;;;;;;19.01;59.45;100739.13;4898187;29;20060;-86
2022/05/26 06:11:08;;;;;;;1.65;1.30;;;;;;;19.00;59.18;100750.47;4897837;29;20080;-87
2022/05/26 06:13:36;;;;;;;5.68;1.58;;;;;;;18.97;59.87;100750.50;4906482;29;20052;-86
2022/05/26 06:16:07;;;;;;;2.58;1.35;;;;;;;18.95;60.53;100744.38;4916706;29;20052;-87
2022/05/26 06:18:35;;;;;;;2.17;1.40;;;;;;;18.93;59.64;100743.50;4916239;29;20122;-86
2022/05/26 06:21:05;;;;;;;3.28;1.48;;;;;;;18.94;60.58;100745.25;4913440;29;20061;-85
2022/05/26 06:23:33;;;;;;;3.08;1.30;;;;;;;18.91;60.87;100739.16;4896530;29;20087;-87
2022/05/26 06:26:02;;;;;;;1.33;1.20;;;;;;;18.89;60.49;100749.66;4897249;29;20052;-87
2022/05/26 06:31:20;;;;;;;2.88;1.10;;;;;;;18.87;61.07;100742.69;4918140;29;20130;-84
2022/05/26 06:39:24;;;;;;;1.00;0.90;;;;;;;18.83;61.16;100728.72;4906312;29;20059;-86
2022/05/26 06:42:09;;;;;;;2.28;1.00;;;;;;;18.82;61.18;100734.84;4915264;29;20483;-86
2022/05/26 06:44:42;;;;;;;2.03;1.42;;;;;;;18.80;62.38;100731.34;4915960;29;20483;-86
2022/05/26 06:47:14;;;;;;;2.05;1.20;;;;;;;18.74;61.50;100731.38;4915792;29;20040;-87
2022/05/26 06:49:43;;;;;;;2.13;1.45;;;;;;;18.77;61.77;100732.22;4916291;29;20052;-87
2022/05/26 06:52:13;;;;;;;3.85;1.30;;;;;;;18.73;61.71;100727.84;4915738;29;20052;-86
2022/05/26 06:54:43;;;;;;;1.98;1.17;;;;;;;18.71;61.45;100720.88;4916399;29;20044;-86
2022/05/26 06:57:12;;;;;;;2.95;1.42;;;;;;;18.67;61.95;100722.66;4916657;29;20148;-86
2022/05/26 06:59:41;;;;;;;1.60;1.25;;;;;;;18.66;61.89;100728.75;4915529;29;20538;-83
2022/05/26 07:02:14;;;;;;;2.55;1.20;;;;;;;18.63;62.22;100724.41;4914486;29;20082;-85
2022/05/26 07:04:44;;;;;;;1.40;1.10;;;;;;;18.62;62.60;100722.66;4915892;29;20052;-86
2022/05/26 07:07:15;;;;;;;2.90;1.50;;;;;;;18.59;63.25;100720.03;4915200;29;20056;-86
2022/05/26 07:09:44;;;;;;;3.92;1.02;;;;;;;18.56;63.73;100717.44;4914887;29;20067;-85
2022/05/26 07:12:13;;;;;;;1.70;1.05;;;;;;;18.54;63.80;100713.09;4915270;29;20048;-85
2022/05/26 07:14:42;;;;;;;1.98;1.10;;;;;;;18.51;64.78;100713.97;4896913;29;20476;-85
2022/05/26 07:17:10;;;;;;;3.42;1.25;;;;;;;18.47;64.68;100722.72;4896715;29;20420;-84
2022/05/26 07:19:41;;;;;;;2.05;1.00;;;;;;;18.45;64.68;100716.59;4896070;29;20048;-85
2022/05/26 07:22:10;;;;;;;2.33;0.95;;;;;;;18.42;65.03;100727.97;4906849;29;20052;-85
2022/05/26 07:24:39;;;;;;;1.20;0.90;;;;;;;18.40;64.79;100731.47;4915076;29;20052;-86
2022/05/26 07:27:08;;;;;;;3.00;1.00;;;;;;;18.38;64.37;100728.00;4918209;28;20507;-86
2022/05/26 07:29:42;;;;;;;2.53;0.95;;;;;;;18.38;64.20;100738.47;4919779;28;20467;-86
2022/05/26 07:32:11;;;;;;;1.27;0.98;;;;;;;18.34;63.94;100727.13;4915337;29;20056;-86
2022/05/26 07:34:41;;;;;;;1.50;1.10;;;;;;;18.32;64.04;100726.25;4914974;29;20495;-86
2022/05/26 07:42:40;;;;;;;1.90;1.00;;;;;;;18.26;63.48;100717.56;4914404;29;20107;-85
2022/05/26 07:45:09;;;;;;;1.30;0.90;;;;;;;18.23;63.79;100713.16;4914814;29;20084;-85
2022/05/26 07:47:38;;;;;;;1.60;1.00;;;;;;;18.23;63.85;100709.69;4914991;29;20107;-86
2022/05/26 07:50:11;;;;;;;3.67;1.15;;;;;;;18.23;65.14;100707.06;4915050;29;20107;-85
2022/05/26 07:52:39;;;;;;;3.72;0.90;;;;;;;18.21;64.96;100705.34;4914060;29;20491;-86
2022/05/26 07:55:09;;;;;;;1.13;0.90;;;;;;;18.18;64.68;100707.94;4914489;29;20090;-86
2022/05/26 07:57:37;;;;;;;1.45;1.05;;;;;;;18.17;64.40;100714.06;4914335;29;20052;-85
2022/05/26 08:00:07;;;;;;;1.42;0.98;;;;;;;18.15;63.89;100702.72;4914150;29;20107;-88
2022/05/26 08:02:36;;;;;;;1.52;1.20;;;;;;;18.11;64.49;100698.38;4899429;29;20071;-89
2022/05/26 08:05:05;;;;;;;1.40;1.00;;;;;;;18.11;64.38;100706.22;4895676;29;20565;-87
2022/05/26 08:07:35;;;;;;;2.78;0.90;;;;;;;18.09;64.63;100709.72;4895593;29;20105;-89
2022/05/26 08:10:04;;;;;;;1.42;1.00;;;;;;;18.07;64.20;100709.72;4895550;29;20104;-88
2022/05/26 08:12:32;;;;;;;1.65;0.90;;;;;;;18.07;65.81;100711.47;4895254;29;20048;-88
2022/05/26 08:15:01;;;;;;;1.35;0.93;;;;;;;18.06;65.54;100707.13;4913726;29;20515;-88
2022/05/26 08:17:29;;;;;;;1.52;1.05;;;;;;;18.04;64.94;100704.50;4914324;29;20491;-86
2022/05/26 08:19:58;;;;;;;2.00;1.00;;;;;;;18.04;64.72;100701.88;4914663;29;20453;-88
2022/05/26 08:22:26;;;;;;;2.42;0.95;;;;;;;18.03;64.90;100705.38;4901257;29;20096;-87
2022/05/26 08:24:59;;;;;;;1.30;1.00;;;;;;;18.01;65.14;100707.13;4908761;29;20119;-87
2022/05/26 08:27:27;;;;;;;1.50;1.05;;;;;;;18.00;65.18;100701.03;4914664;29;20052;-88
2022/05/26 08:29:59;;;;;;;1.52;1.00;;;;;;;17.99;66.03;100699.25;4916151;28;20108;-87
2022/05/26 08:32:28;;;;;;;1.67;0.98;;;;;;;17.93;65.74;100691.41;4913691;29;20131;-88
2022/05/26 08:34:59;;;;;;;1.20;0.90;;;;;;;17.93;66.15;100690.56;4914051;29;20084;-88
2022/05/26 08:37:28;;;;;;;2.17;1.27;;;;;;;17.94;65.41;100698.41;4914549;29;20064;-87
2022/05/26 08:39:58;;;;;;;2.30;1.05;;;;;;;17.92;66.37;100681.84;4914125;29;20291;-87
2022/05/26 08:42:29;;;;;;;1.30;0.98;;;;;;;17.90;66.37;100687.94;4913560;29;20486;-87
2022/05/26 08:45:03;;;;;;;2.53;1.10;;;;;;;17.88;66.67;100689.69;4913388;29;20582;-87
2022/05/26 08:47:35;;;;;;;3.70;1.20;;;;;;;17.85;66.90;100685.34;4914466;29;20052;-86
2022/05/26 08:50:09;;;;;;;1.88;0.82;;;;;;;17.85;66.47;100687.09;4913905;29;20056;-85
2022/05/26 08:52:46;;;;;;;2.38;0.95;;;;;;;17.80;65.71;100692.31;4914392;29;20048;-86
2022/05/26 08:55:19;;;;;;;1.30;0.85;;;;;;;17.78;65.87;100692.28;4914033;29;20127;-87
2022/05/26 08:57:56;;;;;;;3.90;1.10;;;;;;;17.76;65.84;100690.56;4913576;29;20109;-87
2022/05/26 09:00:26;;;;;;;2.10;1.10;;;;;;;17.74;65.57;100684.44;4913604;29;20059;-86
2022/05/26 09:02:57;;;;;;;2.38;1.10;;;;;;;17.74;66.55;100677.47;4895390;29;20132;-87
2022/05/26 09:05:26;;;;;;;2.13;1.02;;;;;;;17.75;66.17;100673.09;4895049;29;20052;-87
2022/05/26 09:13:35;;;;;;;2.45;1.10;;;;;;;17.73;67.10;100675.72;4875265;29;20051;-87
2022/05/26 09:16:07;;;;;;;2.00;1.20;;;;;;;17.71;66.88;100672.25;4916406;29;20455;-86
2022/05/26 09:18:36;;;;;;;2.88;1.23;;;;;;;17.69;67.35;100666.13;4913720;29;20048;-88
2022/05/26 09:21:16;;;;;;;2.10;1.60;;;;;;;17.68;66.90;100672.22;4909876;29;20052;-88
2022/05/26 09:23:46;;;;;;;2.72;1.50;;;;;;;17.68;67.08;100677.47;4899694;29;20511;-88
2022/05/26 09:26:19;;;;;;;2.72;1.27;;;;;;;17.67;66.68;100669.63;4914315;29;20495;-88
2022/05/26 09:28:49;;;;;;;2.35;1.30;;;;;;;17.65;67.20;100674.84;4916415;28;20529;-87
2022/05/26 09:31:31;;;;;;;2.10;1.10;;;;;;;17.64;67.55;100665.28;4914661;29;20163;-86
2022/05/26 09:34:18;;;;;;;3.20;1.52;;;;;;;17.61;67.51;100660.03;4917031;29;20048;-86
2022/05/26 09:36:49;;;;;;;3.33;1.42;;;;;;;17.59;69.26;100652.19;4917233;29;20051;-84
2022/05/26 09:39:22;;;;;;;2.13;1.20;;;;;;;17.58;69.03;100645.19;4917415;29;20054;-85
2022/05/26 09:42:00;;;;;;;2.97;1.40;;;;;;;17.56;69.31;100653.94;4917554;29;20590;-88
2022/05/26 09:44:35;;;;;;;2.88;1.25;;;;;;;17.54;69.31;100634.75;4917043;29;20078;-87
2022/05/26 09:47:07;;;;;;;1.67;1.23;;;;;;;17.52;68.50;100631.25;4917499;29;20062;-89
2022/05/26 09:49:42;;;;;;;1.73;1.25;;;;;;;17.48;68.08;100648.72;4917944;29;20491;-86
2022/05/26 09:52:17;;;;;;;1.73;1.02;;;;;;;17.44;69.44;100657.44;4898714;29;20048;-86
2022/05/26 09:54:47;;;;;;;1.63;1.33;;;;;;;17.38;69.32;100641.72;4910124;29;20044;-86
2022/05/26 09:57:20;;;;;;;1.50;1.20;;;;;;;17.40;69.65;100612.97;4901415;29;20575;-86
2022/05/26 09:59:49;;;;;;;1.08;0.98;;;;;;;17.37;69.36;100606.88;4907544;29;20112;-89
2022/05/26 10:02:23;;;;;;;2.03;1.00;;;;;;;17.35;68.50;100624.28;4906583;29;20117;-88
2022/05/26 10:05:01;;;;;;;2.28;1.17;;;;;;;17.33;70.67;100654.81;4898206;29;20559;-88
2022/05/26 10:07:46;;;;;;;1.20;0.80;;;;;;;17.28;70.20;100656.56;4900013;29;20475;-92
2022/05/26 10:10:23;;;;;;;2.75;1.02;;;;;;;17.20;69.96;100673.09;4923267;29;20048;-90
2022/05/26 10:13:06;;;;;;;0.77;0.60;;;;;;;17.16;69.85;100661.78;4913807;29;20084;-88
2022/05/26 10:15:49;;;;;;;1.58;0.98;;;;;;;17.17;70.45;100658.28;4898169;29;20562;-88
2022/05/26 10:18:25;;;;;;;;;;;;;;;17.16;69.99;100665.28;4898589;29;20095;-88
2022/05/26 10:21:02;;;;;;;2.47;1.00;;;;;;;17.14;69.69;100659.16;4897582;29;20433;-88
2022/05/26 10:23:50;;;;;;;0.90;0.80;;;;;;;17.17;69.79;100655.66;4897603;29;20091;-88
2022/05/26 10:26:30;;;;;;;2.25;0.88;;;;;;;17.16;70.96;100659.16;4905811;29;20056;-87
2022/05/26 10:29:23;;;;;;;3.70;0.93;;;;;;;17.14;70.51;100663.53;4918385;28;20395;-86
2022/05/26 10:32:08;;;;;;;2.00;0.82;;;;;;;17.11;69.45;100666.13;4916215;29;20574;-87
2022/05/26 10:35:01;;;;;;;2.38;1.15;;;;;;;17.04;69.45;100651.28;4916260;29;20111;-87
2022/05/26 10:37:40;;;;;;;1.52;1.02;;;;;;;17.05;69.44;100645.22;4916764;29;20135;-89
2022/05/26 10:40:23;;;;;;;1.58;0.95;;;;;;;17.01;70.61;100641.72;4916122;29;20056;-88
2022/05/26 10:42:56;;;;;;;1.05;0.70;;;;;;;16.96;70.20;100646.94;4914697;29;20071;-88
2022/05/26 10:45:36;;;;;;;1.00;0.73;;;;;;;16.93;69.71;100660.00;4916575;29;20048;-88
2022/05/26 10:48:11;;;;;;;1.33;0.82;;;;;;;16.91;70.82;100643.44;4921026;29;20140;-87
2022/05/26 10:50:43;;;;;;;1.25;0.95;;;;;;;16.89;71.48;100642.56;4915810;29;20126;-87
2022/05/26 10:53:20;;;;;;;1.85;1.20;;;;;;;16.85;70.88;100635.59;4915847;29;20052;-87
2022/05/26 10:55:57;;;;;;;1.00;0.90;;;;;;;16.83;71.09;100646.91;4915856;29;20080;-86
2022/05/26 10:58:32;;;;;;;1.58;1.20;;;;;;;16.77;71.35;100647.75;4915599;29;20116;-87
2022/05/26 11:01:06;;;;;;;1.90;1.00;;;;;;;16.74;72.76;100646.00;4905023;29;20503;-87
2022/05/26 11:03:39;;;;;;;2.13;1.40;;;;;;;16.72;71.81;100637.28;4917158;29;20060;-88
2022/05/26 11:06:14;;;;;;;1.80;1.05;;;;;;;16.69;73.70;100628.56;4916923;29;20048;-87
2022/05/26 11:08:46;;;;;;;1.95;1.23;;;;;;;16.65;74.02;100624.19;4915613;29;20052;-87
2022/05/26 11:11:19;;;;;;;2.17;0.80;;;;;;;16.63;73.98;100629.44;4915831;29;20055;-86
2022/05/26 11:13:55;;;;;;;1.85;1.17;;;;;;;16.62;73.62;100621.56;4904033;29;20087;-87
2022/05/26 11:19:29;;;;;;;2.05;0.93;;;;;;;16.54;70.56;100614.59;4899869;29;20426;-87
2022/05/26 11:21:57;;;;;;;0.93;0.80;;;;;;;16.50;68.50;100605.00;4904578;29;20075;-88
2022/05/26 11:24:26;;;;;;;1.00;0.77;;;;;;;16.44;68.61;100622.38;4904326;29;20559;-86
2022/05/26 11:27:01;;;;;;;1.40;0.70;;;;;;;16.42;69.02;100624.97;4907507;29;20057;-87
2022/05/26 11:29:36;;;;;;;2.88;1.02;;;;;;;16.43;69.29;100626.75;4912008;28;20052;-86
2022/05/26 11:38:06;;;;;;;2.00;0.95;;;;;;;16.30;69.60;100632.78;4912352;29;20407;-88
2022/05/26 11:40:36;;;;;;;;;;;;;;;16.27;69.75;100640.63;4915898;29;20418;-85
2022/05/26 11:43:07;;;;;;;1.58;0.50;;;;;;;16.28;69.70;100642.34;4914480;29;19930;-87
2022/05/26 11:45:52;;;;;;;1.15;0.85;;;;;;;16.29;69.82;100631.06;4914957;29;20055;-87
2022/05/26 11:48:45;;;;;;;1.08;0.68;;;;;;;16.31;69.44;100645.84;4924869;29;20056;-90
2022/05/26 11:51:39;;;;;;;1.27;0.80;;;;;;;16.30;69.25;100648.44;4920669;29;20048;-89
2022/05/26 11:54:09;;;;;;;1.13;0.65;;;;;;;16.30;69.36;100636.25;4896151;29;20131;-89
2022/05/26 11:56:44;;;;;;;2.25;0.88;;;;;;;16.26;70.90;100638.84;4922670;29;20553;-89
2022/05/26 11:59:47;;;;;;;1.48;1.00;;;;;;;16.18;71.70;100644.06;4929224;29;20127;-88
2022/05/26 12:02:39;;;;;;;1.13;0.60;;;;;;;16.16;71.35;100653.59;4894723;29;20103;-89
2022/05/26 12:05:41;;;;;;;1.00;0.70;;;;;;;16.19;70.92;100647.53;4882383;29;20077;-86
2022/05/26 12:08:28;;;;;;;2.05;0.85;;;;;;;16.23;70.72;100650.16;4872765;29;20124;-87
2022/05/26 12:10:58;;;;;;;1.02;0.70;;;;;;;16.26;71.22;100651.91;4877058;29;20064;-86
2022/05/26 12:13:34;;;;;;;1.80;0.70;;;;;;;16.17;70.88;100637.09;4881549;29;20501;-87
2022/05/26 12:16:22;;;;;;;1.08;0.77;;;;;;;16.26;71.27;100647.59;4914524;29;20144;-87
2022/05/26 12:18:53;;;;;;;2.83;0.77;;;;;;;16.28;70.73;100652.78;4912719;29;20059;-88
2022/05/26 12:21:39;;;;;;;2.00;0.77;;;;;;;16.26;69.96;100649.28;4909127;29;20080;-87
2022/05/26 12:24:51;;;;;;;0.80;0.60;;;;;;;16.26;70.64;100649.28;4895158;29;20049;-86
2022/05/26 12:27:51;;;;;;;1.75;1.20;;;;;;;16.25;71.57;100652.78;4893907;29;20115;-85
2022/05/26 12:30:38;;;;;;;3.72;1.33;;;;;;;16.24;72.38;100656.25;4870725;29;20053;-87